Time;durP1;ratioP1;P1;durP2;ratioP2;P2;SDS_P1;SDS_P2;PMS_P1;PMS_P2;Temp;Humidity;BMP_temperature;BMP_pressure;BME280_temperature;BME280_humidity;BME280_pressure;Samples;Min_cycle;Max_cycle;Signal;HPM_P1;HPM_P2
2022/06/24 00:01:41;;;;;;;2.60;1.58;;;;;;;;;;5027274;28;20021;-59
2022/06/24 00:04:07;;;;;;;2.00;1.67;;;;;;;;;;5030694;28;20084;-61
2022/06/24 00:06:46;;;;;;;3.03;1.75;;;;;;;;;;5028075;28;20387;-59
2022/06/24 00:09:13;;;;;;;2.47;1.75;;;;;;;;;;5026914;28;20039;-60
2022/06/24 00:11:39;;;;;;;3.70;2.13;;;;;;;;;;5024982;28;20022;-60
2022/06/24 00:14:10;;;;;;;2.45;1.42;;;;;;;;;;5028961;28;20022;-60
2022/06/24 00:16:55;;;;;;;3.33;1.70;;;;;;;;;;5031183;28;20083;-60
2022/06/24 00:19:21;;;;;;;2.85;1.70;;;;;;;;;;5029443;28;20052;-60
2022/06/24 00:22:01;;;;;;;3.03;2.00;;;;;;;;;;5028882;28;20029;-60
2022/06/24 00:24:27;;;;;;;3.42;2.03;;;;;;;;;;5034945;28;20036;-60
2022/06/24 00:26:54;;;;;;;3.25;1.88;;;;;;;;;;5031128;28;20105;-60
2022/06/24 00:29:19;;;;;;;3.67;2.22;;;;;;;;;;5029547;28;20444;-59
2022/06/24 00:32:01;;;;;;;2.03;1.45;;;;;;;;;;5018214;28;20054;-60
2022/06/24 00:34:27;;;;;;;3.00;1.63;;;;;;;;;;5030546;28;20420;-60
2022/06/24 00:36:53;;;;;;;2.20;2.00;;;;;;;;;;5029894;28;20137;-60
2022/06/24 00:39:19;;;;;;;4.65;2.20;;;;;;;;;;5030584;28;20100;-60
2022/06/24 00:41:51;;;;;;;8.25;1.63;;;;;;;;;;5028905;28;20400;-60
2022/06/24 00:44:18;;;;;;;3.25;1.65;;;;;;;;;;5028628;28;20025;-59
2022/06/24 00:46:46;;;;;;;2.20;1.70;;;;;;;;;;5024450;28;20484;-60
2022/06/24 00:49:15;;;;;;;4.03;1.88;;;;;;;;;;5019884;28;20366;-61
2022/06/24 00:51:41;;;;;;;4.55;2.40;;;;;;;;;;5033118;28;20496;-60
2022/06/24 00:54:12;;;;;;;4.85;1.67;;;;;;;;;;5038575;28;20385;-60
2022/06/24 00:56:38;;;;;;;6.28;2.15;;;;;;;;;;5029317;28;20556;-59
2022/06/24 00:59:06;;;;;;;3.22;1.67;;;;;;;;;;5028596;28;20029;-58
2022/06/24 01:01:34;;;;;;;3.63;1.90;;;;;;;;;;5030660;28;20056;-59
2022/06/24 01:04:00;;;;;;;4.47;1.77;;;;;;;;;;5029813;28;20017;-59
2022/06/24 01:06:27;;;;;;;2.97;1.90;;;;;;;;;;5030547;28;20029;-60
2022/06/24 01:08:53;;;;;;;4.05;2.38;;;;;;;;;;5029848;28;20040;-60
2022/06/24 01:11:29;;;;;;;2.42;1.75;;;;;;;;;;5029376;28;20033;-61
2022/06/24 01:13:56;;;;;;;4.00;1.83;;;;;;;;;;5032951;28;20075;-60
2022/06/24 01:16:23;;;;;;;4.72;1.90;;;;;;;;;;5026288;28;20477;-61
2022/06/24 01:18:56;;;;;;;3.22;2.00;;;;;;;;;;5028443;28;20412;-60
2022/06/24 01:21:41;;;;;;;2.95;2.35;;;;;;;;;;5039368;28;20053;-60
2022/06/24 01:24:07;;;;;;;2.88;1.88;;;;;;;;;;5029094;28;20063;-60
2022/06/24 01:26:34;;;;;;;3.70;2.08;;;;;;;;;;5028231;28;20045;-58
2022/06/24 01:29:00;;;;;;;4.68;2.70;;;;;;;;;;5027043;28;20064;-60
2022/06/24 01:31:26;;;;;;;3.60;1.90;;;;;;;;;;5028960;28;20033;-60
2022/06/24 01:33:52;;;;;;;4.43;2.17;;;;;;;;;;5026366;28;20044;-59
2022/06/24 01:36:18;;;;;;;3.90;2.30;;;;;;;;;;5028911;28;20028;-60
2022/06/24 01:38:44;;;;;;;3.10;2.05;;;;;;;;;;5029713;28;20393;-60
2022/06/24 01:41:10;;;;;;;2.83;2.20;;;;;;;;;;5028260;28;20034;-59
2022/06/24 01:43:36;;;;;;;4.95;2.45;;;;;;;;;;5028307;28;20035;-60
2022/06/24 01:46:01;;;;;;;6.07;2.35;;;;;;;;;;5028868;28;20153;-60
2022/06/24 01:48:27;;;;;;;4.47;2.53;;;;;;;;;;5027434;28;20022;-60
2022/06/24 01:50:53;;;;;;;5.10;2.20;;;;;;;;;;5027346;28;20053;-60
2022/06/24 01:53:20;;;;;;;3.60;2.65;;;;;;;;;;5026948;28;20026;-60
2022/06/24 01:55:46;;;;;;;5.40;2.30;;;;;;;;;;5028854;28;20029;-60
2022/06/24 01:58:12;;;;;;;8.05;2.30;;;;;;;;;;5027593;28;20533;-60
2022/06/24 02:00:38;;;;;;;3.90;2.45;;;;;;;;;;5028758;28;20025;-58
2022/06/24 02:03:07;;;;;;;2.60;1.90;;;;;;;;;;5031737;28;20060;-59
2022/06/24 02:05:33;;;;;;;8.05;2.65;;;;;;;;;;5033342;28;20105;-60
2022/06/24 02:07:59;;;;;;;3.85;2.50;;;;;;;;;;5030194;28;20541;-60
2022/06/24 02:13:29;;;;;;;5.70;2.50;;;;;;;;;;5027307;28;20032;-60
2022/06/24 02:15:56;;;;;;;3.35;2.40;;;;;;;;;;5027853;28;20030;-59
2022/06/24 02:18:22;;;;;;;5.40;2.42;;;;;;;;;;5027535;28;20036;-59
2022/06/24 02:20:48;;;;;;;7.15;2.97;;;;;;;;;;5032899;28;20116;-58
2022/06/24 02:23:14;;;;;;;3.70;2.22;;;;;;;;;;5032318;28;20033;-58
2022/06/24 02:25:40;;;;;;;9.35;2.53;;;;;;;;;;5026848;28;20126;-60
2022/06/24 02:28:06;;;;;;;4.60;2.17;;;;;;;;;;5031729;28;20029;-59
2022/06/24 02:30:32;;;;;;;2.45;2.05;;;;;;;;;;5030919;28;20392;-59
2022/06/24 02:32:58;;;;;;;4.05;2.50;;;;;;;;;;5029364;28;20136;-61
2022/06/24 02:35:24;;;;;;;3.65;2.10;;;;;;;;;;5021272;28;20079;-59
2022/06/24 02:37:50;;;;;;;3.88;2.65;;;;;;;;;;5030671;28;20034;-60
2022/06/24 02:43:01;;;;;;;6.05;2.55;;;;;;;;;;5031130;28;20044;-60
2022/06/24 02:45:27;;;;;;;4.75;2.50;;;;;;;;;;5014685;28;20025;-59
2022/06/24 02:47:53;;;;;;;5.25;2.45;;;;;;;;;;5030912;28;20037;-59
2022/06/24 02:50:19;;;;;;;5.13;2.20;;;;;;;;;;5031147;28;20029;-59
2022/06/24 02:52:45;;;;;;;6.13;2.53;;;;;;;;;;5032255;28;20021;-60
2022/06/24 02:55:11;;;;;;;5.40;2.83;;;;;;;;;;5030236;28;20456;-60
2022/06/24 02:57:37;;;;;;;3.42;2.38;;;;;;;;;;5030626;28;20457;-59
2022/06/24 03:00:03;;;;;;;2.80;2.38;;;;;;;;;;5032821;28;20025;-59
2022/06/24 03:02:29;;;;;;;8.60;2.40;;;;;;;;;;5032953;28;20447;-60
2022/06/24 03:04:55;;;;;;;4.53;2.40;;;;;;;;;;5008627;28;20041;-59
2022/06/24 03:07:21;;;;;;;3.45;2.70;;;;;;;;;;5031300;28;20393;-58
2022/06/24 03:09:47;;;;;;;3.20;2.50;;;;;;;;;;5027920;28;20029;-60
2022/06/24 03:12:13;;;;;;;2.58;2.17;;;;;;;;;;5031607;28;20026;-60
2022/06/24 03:14:39;;;;;;;3.08;2.50;;;;;;;;;;5032074;28;20492;-59
2022/06/24 03:17:05;;;;;;;6.05;2.88;;;;;;;;;;5028580;28;20448;-57
2022/06/24 03:19:31;;;;;;;5.50;2.90;;;;;;;;;;5028936;28;20025;-60
2022/06/24 03:21:57;;;;;;;3.05;2.40;;;;;;;;;;5031541;28;20160;-58
2022/06/24 03:24:23;;;;;;;8.50;2.80;;;;;;;;;;5030704;28;20033;-60
2022/06/24 03:26:49;;;;;;;4.00;2.55;;;;;;;;;;5030033;28;20045;-59
2022/06/24 03:29:15;;;;;;;6.20;2.47;;;;;;;;;;5030069;28;20084;-60
2022/06/24 03:31:41;;;;;;;4.25;2.80;;;;;;;;;;5031023;28;20457;-59
2022/06/24 03:34:07;;;;;;;3.20;2.28;;;;;;;;;;5029412;28;20026;-60
2022/06/24 03:36:33;;;;;;;4.93;2.65;;;;;;;;;;5024550;28;20030;-60
2022/06/24 03:38:59;;;;;;;5.30;2.53;;;;;;;;;;5030373;28;20026;-60
2022/06/24 03:41:25;;;;;;;7.32;2.60;;;;;;;;;;5031096;28;20044;-60
2022/06/24 03:43:51;;;;;;;6.00;2.33;;;;;;;;;;5029568;28;20029;-60
2022/06/24 03:46:17;;;;;;;4.75;2.70;;;;;;;;;;5028852;28;20026;-60
2022/06/24 03:48:43;;;;;;;4.40;2.50;;;;;;;;;;5025793;28;20033;-59
2022/06/24 03:51:09;;;;;;;3.42;2.40;;;;;;;;;;5031227;28;20026;-60
2022/06/24 03:53:35;;;;;;;4.20;2.20;;;;;;;;;;5030457;28;20100;-59
2022/06/24 03:56:01;;;;;;;5.07;2.30;;;;;;;;;;5030894;28;20109;-59
2022/06/24 03:58:27;;;;;;;5.47;2.83;;;;;;;;;;5029857;28;20058;-60
2022/06/24 04:01:00;;;;;;;4.38;2.63;;;;;;;;;;5028522;28;20492;-60
2022/06/24 04:03:26;;;;;;;4.68;2.78;;;;;;;;;;5028072;28;20116;-61
2022/06/24 04:05:52;;;;;;;3.72;2.55;;;;;;;;;;5028810;28;20180;-60
2022/06/24 04:08:17;;;;;;;5.18;2.35;;;;;;;;;;5029586;28;20026;-60
2022/06/24 04:10:43;;;;;;;7.72;2.40;;;;;;;;;;5023605;28;20397;-59
2022/06/24 04:13:09;;;;;;;3.58;2.70;;;;;;;;;;5030190;28;20052;-61
2022/06/24 04:15:35;;;;;;;3.80;2.70;;;;;;;;;;5029712;28;20032;-60
2022/06/24 04:18:01;;;;;;;5.38;2.72;;;;;;;;;;5028217;28;20044;-60
2022/06/24 04:20:27;;;;;;;3.03;2.40;;;;;;;;;;5034235;28;20080;-60
2022/06/24 04:22:53;;;;;;;5.72;2.65;;;;;;;;;;5027050;28;20029;-59
2022/06/24 04:25:19;;;;;;;4.03;2.45;;;;;;;;;;5026919;28;20036;-59
2022/06/24 04:27:45;;;;;;;3.55;2.20;;;;;;;;;;5030029;28;20080;-60
2022/06/24 04:30:12;;;;;;;3.35;2.03;;;;;;;;;;5011775;28;20091;-59
2022/06/24 04:32:38;;;;;;;6.35;2.35;;;;;;;;;;5028033;28;20029;-59
2022/06/24 04:35:04;;;;;;;7.40;2.70;;;;;;;;;;5024617;28;20379;-59
2022/06/24 04:37:30;;;;;;;5.47;2.75;;;;;;;;;;5027621;28;20021;-60
2022/06/24 04:39:58;;;;;;;6.18;2.60;;;;;;;;;;5027949;28;20032;-58
2022/06/24 04:42:24;;;;;;;5.32;2.10;;;;;;;;;;5027523;28;20021;-60
2022/06/24 04:44:50;;;;;;;3.63;2.35;;;;;;;;;;5028179;28;20112;-59
2022/06/24 04:47:15;;;;;;;7.38;1.95;;;;;;;;;;5024113;28;20033;-60
2022/06/24 04:49:41;;;;;;;3.50;2.50;;;;;;;;;;5033633;28;20037;-59
2022/06/24 04:52:07;;;;;;;3.42;2.08;;;;;;;;;;5025638;28;20473;-60
2022/06/24 04:54:33;;;;;;;4.20;2.55;;;;;;;;;;5026644;28;20047;-61
2022/06/24 04:56:59;;;;;;;7.13;2.28;;;;;;;;;;5026628;28;20029;-60
2022/06/24 04:59:26;;;;;;;6.80;2.30;;;;;;;;;;5018230;28;20034;-61
2022/06/24 05:01:52;;;;;;;5.68;2.67;;;;;;;;;;5029416;28;20032;-60
2022/06/24 05:04:18;;;;;;;5.70;2.22;;;;;;;;;;5027048;28;20034;-59
2022/06/24 05:06:44;;;;;;;6.07;2.10;;;;;;;;;;5027201;28;20029;-60
2022/06/24 05:09:10;;;;;;;3.35;2.00;;;;;;;;;;5025614;28;20428;-61
2022/06/24 05:11:36;;;;;;;5.00;2.42;;;;;;;;;;5026322;28;20029;-60
2022/06/24 05:14:02;;;;;;;4.00;2.28;;;;;;;;;;5029150;28;20370;-60
2022/06/24 05:16:28;;;;;;;4.70;3.15;;;;;;;;;;5029183;28;20018;-60
2022/06/24 05:18:55;;;;;;;3.90;2.25;;;;;;;;;;5030207;28;20033;-59
2022/06/24 05:21:20;;;;;;;4.20;2.25;;;;;;;;;;5026453;28;20034;-60
2022/06/24 05:23:46;;;;;;;5.22;2.38;;;;;;;;;;5028189;28;20033;-60
2022/06/24 05:26:12;;;;;;;4.22;2.10;;;;;;;;;;5029198;28;20053;-61
2022/06/24 05:28:38;;;;;;;4.60;2.28;;;;;;;;;;5028934;28;20105;-60
2022/06/24 05:31:04;;;;;;;5.30;2.20;;;;;;;;;;5028594;28;20052;-60
2022/06/24 05:33:33;;;;;;;4.82;2.47;;;;;;;;;;5028509;28;20013;-60
2022/06/24 05:35:59;;;;;;;4.80;2.53;;;;;;;;;;5030598;28;20056;-60
2022/06/24 05:38:25;;;;;;;3.78;2.22;;;;;;;;;;5032627;28;20500;-58
2022/06/24 05:40:51;;;;;;;5.28;2.13;;;;;;;;;;5031648;28;20030;-61
2022/06/24 05:43:20;;;;;;;5.50;2.50;;;;;;;;;;5032109;28;20116;-62
2022/06/24 05:45:47;;;;;;;5.20;2.33;;;;;;;;;;5030308;28;20025;-61
2022/06/24 05:48:13;;;;;;;4.40;2.30;;;;;;;;;;5030059;28;20388;-62
2022/06/24 05:50:40;;;;;;;4.70;1.92;;;;;;;;;;5024820;28;20480;-59
2022/06/24 05:55:56;;;;;;;4.40;1.92;;;;;;;;;;5030260;28;20052;-60
2022/06/24 05:58:21;;;;;;;4.82;2.03;;;;;;;;;;5033076;28;20033;-60
2022/06/24 06:00:47;;;;;;;3.42;1.95;;;;;;;;;;5030231;28;20596;-61
2022/06/24 06:03:13;;;;;;;3.70;2.00;;;;;;;;;;5032437;28;20369;-61
2022/06/24 06:05:39;;;;;;;2.88;2.10;;;;;;;;;;5029060;28;20025;-60
2022/06/24 06:08:05;;;;;;;3.63;2.35;;;;;;;;;;5027305;28;20030;-59
2022/06/24 06:10:31;;;;;;;3.72;2.42;;;;;;;;;;5026968;28;20025;-61
2022/06/24 06:12:58;;;;;;;4.63;2.30;;;;;;;;;;5011948;28;20546;-60
2022/06/24 06:15:24;;;;;;;4.10;2.47;;;;;;;;;;5033444;28;20053;-60
2022/06/24 06:17:49;;;;;;;4.55;2.10;;;;;;;;;;5032626;28;20049;-60
2022/06/24 06:20:15;;;;;;;4.25;2.15;;;;;;;;;;5030863;28;20029;-58
2022/06/24 06:22:41;;;;;;;3.78;1.85;;;;;;;;;;5032858;28;21371;-59
2022/06/24 06:25:09;;;;;;;5.40;2.20;;;;;;;;;;5032347;28;20033;-60
2022/06/24 06:27:36;;;;;;;4.07;2.13;;;;;;;;;;5033009;28;20069;-60
2022/06/24 06:30:03;;;;;;;5.25;2.42;;;;;;;;;;5028281;28;20116;-61
2022/06/24 06:32:29;;;;;;;4.90;1.98;;;;;;;;;;5033068;28;20423;-62
2022/06/24 06:34:54;;;;;;;6.03;2.15;;;;;;;;;;5032843;28;20029;-61
2022/06/24 06:37:20;;;;;;;6.00;2.33;;;;;;;;;;5030350;28;20511;-61
2022/06/24 06:39:47;;;;;;;4.47;1.98;;;;;;;;;;5029859;28;20433;-61
2022/06/24 06:42:13;;;;;;;3.38;1.73;;;;;;;;;;5012201;28;20417;-60
2022/06/24 06:44:39;;;;;;;5.00;2.03;;;;;;;;;;5032275;28;20041;-60
2022/06/24 06:47:05;;;;;;;3.10;1.92;;;;;;;;;;5031008;28;20033;-58
2022/06/24 06:49:32;;;;;;;4.32;1.75;;;;;;;;;;5028965;28;20178;-60
2022/06/24 06:52:00;;;;;;;5.05;2.00;;;;;;;;;;5031051;28;20079;-60
2022/06/24 06:54:26;;;;;;;4.68;1.73;;;;;;;;;;5027025;28;20500;-60
2022/06/24 06:56:52;;;;;;;7.78;2.35;;;;;;;;;;5029537;28;20029;-61
2022/06/24 06:59:18;;;;;;;6.10;1.75;;;;;;;;;;5030065;28;20060;-58
2022/06/24 07:01:44;;;;;;;5.30;1.85;;;;;;;;;;5029160;28;20108;-59
2022/06/24 07:04:10;;;;;;;2.38;1.42;;;;;;;;;;5026211;28;20029;-60
2022/06/24 07:06:36;;;;;;;7.10;2.22;;;;;;;;;;5028520;28;20033;-58
2022/06/24 07:09:02;;;;;;;5.60;1.60;;;;;;;;;;5027682;28;20335;-60
2022/06/24 07:11:28;;;;;;;1.90;1.48;;;;;;;;;;5031652;28;20017;-59
2022/06/24 07:13:55;;;;;;;5.32;2.03;;;;;;;;;;5032632;28;20491;-59
2022/06/24 07:16:21;;;;;;;4.65;1.80;;;;;;;;;;5028908;28;20097;-61
2022/06/24 07:18:47;;;;;;;5.70;1.92;;;;;;;;;;5032738;28;20128;-59
2022/06/24 07:21:13;;;;;;;6.80;1.95;;;;;;;;;;5030538;28;20045;-60
2022/06/24 07:23:40;;;;;;;2.58;1.58;;;;;;;;;;5028185;28;20022;-60
2022/06/24 07:26:06;;;;;;;2.95;1.92;;;;;;;;;;5020930;28;20052;-60
2022/06/24 07:28:34;;;;;;;3.97;1.55;;;;;;;;;;5029662;28;20030;-60
2022/06/24 07:31:00;;;;;;;4.40;2.20;;;;;;;;;;5030670;28;20029;-60
2022/06/24 07:33:26;;;;;;;3.90;1.80;;;;;;;;;;5025058;28;20694;-60
2022/06/24 07:35:52;;;;;;;5.95;1.65;;;;;;;;;;5032158;28;20022;-60
2022/06/24 07:38:18;;;;;;;3.40;1.60;;;;;;;;;;5031359;28;20540;-58
2022/06/24 07:40:44;;;;;;;2.78;1.50;;;;;;;;;;5026904;28;20037;-59
2022/06/24 07:43:10;;;;;;;3.38;1.70;;;;;;;;;;5028778;28;20030;-60
2022/06/24 07:45:36;;;;;;;4.70;1.63;;;;;;;;;;5040182;28;20032;-60
2022/06/24 07:48:02;;;;;;;4.28;2.00;;;;;;;;;;5029311;28;20033;-59
2022/06/24 07:50:29;;;;;;;2.00;1.50;;;;;;;;;;5039323;28;20116;-60
2022/06/24 07:52:54;;;;;;;3.22;1.40;;;;;;;;;;5029248;28;20025;-61
2022/06/24 07:58:05;;;;;;;3.42;1.70;;;;;;;;;;5028683;28;20510;-61
2022/06/24 08:00:31;;;;;;;3.85;1.55;;;;;;;;;;5029521;28;20072;-60
2022/06/24 08:02:57;;;;;;;2.70;1.50;;;;;;;;;;5030460;28;20026;-60
2022/06/24 08:05:24;;;;;;;3.05;1.58;;;;;;;;;;5029489;28;20029;-60
2022/06/24 08:07:50;;;;;;;4.45;1.83;;;;;;;;;;5028962;28;20428;-61
2022/06/24 08:10:16;;;;;;;1.95;1.35;;;;;;;;;;5030750;28;20022;-60
2022/06/24 08:12:42;;;;;;;3.92;1.40;;;;;;;;;;5031580;28;20021;-61
2022/06/24 08:15:08;;;;;;;5.05;1.70;;;;;;;;;;5029458;28;20025;-60
2022/06/24 08:17:34;;;;;;;4.57;1.60;;;;;;;;;;5025236;28;20029;-60
2022/06/24 08:20:00;;;;;;;5.45;1.60;;;;;;;;;;5029106;28;20029;-60
2022/06/24 08:22:26;;;;;;;3.03;1.38;;;;;;;;;;5031023;28;20104;-62
2022/06/24 08:24:52;;;;;;;2.00;1.38;;;;;;;;;;5030569;28;20030;-60
2022/06/24 08:27:18;;;;;;;3.53;1.75;;;;;;;;;;5029872;28;20036;-60
2022/06/24 08:29:44;;;;;;;3.05;1.45;;;;;;;;;;5029732;28;20072;-59
2022/06/24 08:32:10;;;;;;;3.25;1.42;;;;;;;;;;5030627;28;20031;-61
2022/06/24 08:34:36;;;;;;;3.75;1.48;;;;;;;;;;5029968;28;20525;-60
2022/06/24 08:37:02;;;;;;;2.42;1.52;;;;;;;;;;5031263;28;20397;-61
2022/06/24 08:39:28;;;;;;;2.95;1.10;;;;;;;;;;5030273;28;20063;-60
2022/06/24 08:41:56;;;;;;;3.28;1.77;;;;;;;;;;5012590;28;20453;-60
2022/06/24 08:44:23;;;;;;;4.63;1.50;;;;;;;;;;5030810;28;20092;-61
2022/06/24 08:46:49;;;;;;;3.50;1.50;;;;;;;;;;5031222;28;20039;-59
2022/06/24 08:49:15;;;;;;;3.65;1.63;;;;;;;;;;5030509;28;20033;-61
2022/06/24 08:51:42;;;;;;;3.47;1.40;;;;;;;;;;5029963;28;20481;-61
2022/06/24 08:54:09;;;;;;;2.22;1.48;;;;;;;;;;5023684;28;20556;-62
2022/06/24 08:56:35;;;;;;;4.68;1.42;;;;;;;;;;5030254;28;20109;-61
2022/06/24 08:59:02;;;;;;;4.18;1.33;;;;;;;;;;5030398;28;20036;-60
2022/06/24 09:01:28;;;;;;;3.58;1.52;;;;;;;;;;5030531;28;20033;-60
2022/06/24 09:03:54;;;;;;;3.38;1.77;;;;;;;;;;5029390;28;20033;-61
2022/06/24 09:06:20;;;;;;;5.38;1.88;;;;;;;;;;5028698;28;20033;-61
2022/06/24 09:08:49;;;;;;;2.53;1.38;;;;;;;;;;5028742;28;20022;-60
2022/06/24 09:11:15;;;;;;;3.08;1.70;;;;;;;;;;5035049;28;20425;-60
2022/06/24 09:13:55;;;;;;;3.72;1.20;;;;;;;;;;5036313;28;20366;-61
2022/06/24 09:16:24;;;;;;;4.15;1.50;;;;;;;;;;5035180;28;20113;-62
2022/06/24 09:18:51;;;;;;;3.25;1.40;;;;;;;;;;5036033;28;20021;-61
2022/06/24 09:21:24;;;;;;;4.65;1.50;;;;;;;;;;5034092;28;20477;-61
2022/06/24 09:23:51;;;;;;;;;;;;;;;;;;5034615;28;20048;-60
2022/06/24 09:26:21;;;;;;;1.58;1.20;;;;;;;;;;5034650;28;20380;-61
2022/06/24 09:28:47;;;;;;;4.53;1.67;;;;;;;;;;5036466;28;20025;-61
2022/06/24 09:31:13;;;;;;;4.68;1.65;;;;;;;;;;5028859;28;20491;-61
2022/06/24 09:33:41;;;;;;;2.17;1.50;;;;;;;;;;5033489;28;20025;-60
2022/06/24 09:36:08;;;;;;;3.10;1.30;;;;;;;;;;5036322;28;20018;-60
2022/06/24 09:38:52;;;;;;;4.30;1.33;;;;;;;;;;5034453;28;20104;-60
2022/06/24 09:41:18;;;;;;;3.55;1.67;;;;;;;;;;5036232;28;20029;-61
2022/06/24 09:43:44;;;;;;;5.18;1.80;;;;;;;;;;5036042;28;20025;-60
2022/06/24 09:46:16;;;;;;;4.93;2.00;;;;;;;;;;5032931;28;20117;-60
2022/06/24 09:48:42;;;;;;;1.60;1.25;;;;;;;;;;5034696;28;20048;-58
2022/06/24 09:51:08;;;;;;;4.32;1.67;;;;;;;;;;5035577;28;20447;-60
2022/06/24 09:53:41;;;;;;;2.38;1.50;;;;;;;;;;5036315;28;20033;-61
2022/06/24 09:56:09;;;;;;;4.15;1.35;;;;;;;;;;5046971;28;20017;-60
2022/06/24 09:58:39;;;;;;;1.90;1.45;;;;;;;;;;5037177;28;20401;-60
2022/06/24 10:01:06;;;;;;;4.60;1.65;;;;;;;;;;5035552;28;20040;-60
2022/06/24 10:03:33;;;;;;;4.13;1.40;;;;;;;;;;5036708;28;20030;-60
2022/06/24 10:06:04;;;;;;;6.28;1.65;;;;;;;;;;5034109;28;20039;-61
2022/06/24 10:08:32;;;;;;;3.33;1.60;;;;;;;;;;5036338;28;20033;-61
2022/06/24 10:11:00;;;;;;;5.28;1.38;;;;;;;;;;5035133;28;20026;-58
2022/06/24 10:13:26;;;;;;;3.30;1.70;;;;;;;;;;5036663;28;20022;-60
2022/06/24 10:15:56;;;;;;;3.72;1.42;;;;;;;;;;5036656;28;20528;-60
2022/06/24 10:18:32;;;;;;;4.18;1.20;;;;;;;;;;5035510;28;20065;-60
2022/06/24 10:20:59;;;;;;;2.47;1.20;;;;;;;;;;5034341;28;20068;-60
2022/06/24 10:23:45;;;;;;;3.10;1.17;;;;;;;;;;5031813;28;20037;-62
2022/06/24 10:26:26;;;;;;;4.30;1.48;;;;;;;;;;5028809;28;20096;-60
2022/06/24 10:29:03;;;;;;;3.55;1.13;;;;;;;;;;5032228;28;20037;-62
2022/06/24 10:31:38;;;;;;;2.72;1.30;;;;;;;;;;5033070;28;20022;-62
2022/06/24 10:34:05;;;;;;;2.08;1.42;;;;;;;;;;5033490;28;20100;-60
2022/06/24 10:36:31;;;;;;;4.25;1.05;;;;;;;;;;5026658;28;20041;-61
2022/06/24 10:39:07;;;;;;;2.38;1.42;;;;;;;;;;5030496;28;20029;-62
2022/06/24 10:41:37;;;;;;;4.25;1.92;;;;;;;;;;5011307;28;20447;-61
2022/06/24 10:44:22;;;;;;;3.53;1.42;;;;;;;;;;5033460;28;20400;-62
2022/06/24 10:46:48;;;;;;;5.20;1.20;;;;;;;;;;5020454;28;20083;-61
2022/06/24 10:49:14;;;;;;;3.83;1.40;;;;;;;;;;5030704;28;20068;-61
2022/06/24 10:51:40;;;;;;;3.00;1.35;;;;;;;;;;5028487;28;20389;-62
2022/06/24 10:54:09;;;;;;;2.90;1.30;;;;;;;;;;5029979;28;20056;-62
2022/06/24 10:56:46;;;;;;;1.88;1.00;;;;;;;;;;5032514;28;20029;-61
2022/06/24 10:59:13;;;;;;;5.45;1.33;;;;;;;;;;5032499;28;20104;-62
2022/06/24 11:01:43;;;;;;;2.10;1.05;;;;;;;;;;5032828;28;20091;-63
2022/06/24 11:04:11;;;;;;;5.97;1.00;;;;;;;;;;5032961;28;20022;-63
2022/06/24 11:06:38;;;;;;;2.42;1.20;;;;;;;;;;5029843;28;20460;-61
2022/06/24 11:09:07;;;;;;;2.20;1.05;;;;;;;;;;5040324;28;20417;-61
2022/06/24 11:11:34;;;;;;;4.05;1.27;;;;;;;;;;5032058;28;20511;-63
2022/06/24 11:14:00;;;;;;;6.25;1.35;;;;;;;;;;5032167;28;20026;-62
2022/06/24 11:16:27;;;;;;;1.98;1.20;;;;;;;;;;5032804;28;20032;-61
2022/06/24 11:18:53;;;;;;;2.10;1.00;;;;;;;;;;5032651;28;20157;-62
2022/06/24 11:21:19;;;;;;;3.08;1.58;;;;;;;;;;5030881;28;20018;-62
2022/06/24 11:23:50;;;;;;;3.00;1.38;;;;;;;;;;5023854;28;20044;-61
2022/06/24 11:26:17;;;;;;;2.10;1.08;;;;;;;;;;5030772;28;20436;-62
2022/06/24 11:28:48;;;;;;;2.95;1.33;;;;;;;;;;5029289;28;20480;-60
2022/06/24 11:31:19;;;;;;;2.22;1.40;;;;;;;;;;5029557;28;20040;-60
2022/06/24 11:33:46;;;;;;;1.70;1.10;;;;;;;;;;5029433;28;21329;-60
2022/06/24 11:36:14;;;;;;;4.63;1.30;;;;;;;;;;5034862;28;20026;-62
2022/06/24 11:38:50;;;;;;;6.13;1.20;;;;;;;;;;5031423;28;20026;-60
2022/06/24 11:41:26;;;;;;;4.72;1.90;;;;;;;;;;5027798;28;20504;-62
2022/06/24 11:43:52;;;;;;;3.13;1.40;;;;;;;;;;5030717;28;20030;-62
2022/06/24 11:46:18;;;;;;;4.80;1.38;;;;;;;;;;5031161;28;20021;-61
2022/06/24 11:48:45;;;;;;;3.15;1.27;;;;;;;;;;5029160;28;20037;-61
2022/06/24 11:51:18;;;;;;;3.83;1.30;;;;;;;;;;5030337;28;20035;-64
2022/06/24 11:53:56;;;;;;;4.57;1.35;;;;;;;;;;5019329;28;20036;-62
2022/06/24 11:56:22;;;;;;;2.58;1.20;;;;;;;;;;5026235;28;20021;-62
2022/06/24 11:58:48;;;;;;;3.85;1.02;;;;;;;;;;5029764;28;20101;-60
2022/06/24 12:01:14;;;;;;;1.75;1.00;;;;;;;;;;5031522;28;20108;-61
2022/06/24 12:03:40;;;;;;;2.70;0.85;;;;;;;;;;5030385;28;20036;-62
2022/06/24 12:06:06;;;;;;;2.00;1.10;;;;;;;;;;5030677;28;20036;-62
2022/06/24 12:08:32;;;;;;;2.35;1.17;;;;;;;;;;5011477;28;20386;-61
2022/06/24 12:10:58;;;;;;;2.95;1.27;;;;;;;;;;5027221;28;20036;-60
2022/06/24 12:13:33;;;;;;;4.82;1.23;;;;;;;;;;5030682;28;20144;-61
2022/06/24 12:15:59;;;;;;;2.50;1.15;;;;;;;;;;5018036;28;20036;-61
2022/06/24 12:18:26;;;;;;;3.08;1.08;;;;;;;;;;5029976;28;20512;-61
2022/06/24 12:21:02;;;;;;;6.15;1.20;;;;;;;;;;5028761;28;20374;-62
2022/06/24 12:23:33;;;;;;;4.53;1.15;;;;;;;;;;5030399;28;20025;-61
2022/06/24 12:26:04;;;;;;;8.70;1.20;;;;;;;;;;5032724;28;20467;-62
2022/06/24 12:28:30;;;;;;;3.60;1.05;;;;;;;;;;5029543;28;20037;-60
2022/06/24 12:31:04;;;;;;;5.90;1.23;;;;;;;;;;5028661;28;20053;-61
2022/06/24 12:33:34;;;;;;;1.75;1.20;;;;;;;;;;5027666;28;20021;-61
2022/06/24 12:36:05;;;;;;;2.80;1.17;;;;;;;;;;5029641;28;20033;-61
2022/06/24 12:38:31;;;;;;;2.42;1.33;;;;;;;;;;5023853;28;20021;-61
2022/06/24 12:41:08;;;;;;;3.92;1.10;;;;;;;;;;5029182;28;20091;-60
2022/06/24 12:43:34;;;;;;;1.90;1.00;;;;;;;;;;5030994;28;20040;-61
2022/06/24 12:46:02;;;;;;;3.05;1.30;;;;;;;;;;5030496;28;20022;-62
2022/06/24 12:51:13;;;;;;;3.70;1.10;;;;;;;;;;5020228;28;20435;-62
2022/06/24 12:53:45;;;;;;;3.25;1.13;;;;;;;;;;5027966;28;20029;-61
2022/06/24 12:56:11;;;;;;;1.70;1.10;;;;;;;;;;5028502;28;20021;-60
2022/06/24 12:58:37;;;;;;;2.03;0.93;;;;;;;;;;5032365;28;20025;-62
2022/06/24 13:01:03;;;;;;;2.30;1.00;;;;;;;;;;5031626;28;20029;-61
2022/06/24 13:03:28;;;;;;;1.60;0.85;;;;;;;;;;5009369;28;20036;-61
2022/06/24 13:05:54;;;;;;;3.05;1.05;;;;;;;;;;5027498;28;20030;-61
2022/06/24 13:08:22;;;;;;;1.40;0.90;;;;;;;;;;5027289;28;20041;-61
2022/06/24 13:10:48;;;;;;;2.25;0.80;;;;;;;;;;5029480;28;20440;-60
2022/06/24 13:13:14;;;;;;;4.28;1.20;;;;;;;;;;5028396;28;20548;-60
2022/06/24 13:15:40;;;;;;;2.08;0.73;;;;;;;;;;5026899;28;20032;-61
2022/06/24 13:18:06;;;;;;;2.70;0.82;;;;;;;;;;5020259;28;20191;-61
2022/06/24 13:20:32;;;;;;;5.03;1.35;;;;;;;;;;5028132;28;20484;-61
2022/06/24 13:22:58;;;;;;;1.65;0.70;;;;;;;;;;5030462;28;20035;-61
2022/06/24 13:25:25;;;;;;;2.40;0.98;;;;;;;;;;5028088;28;20049;-62
2022/06/24 13:27:51;;;;;;;3.63;0.82;;;;;;;;;;5027953;28;20076;-60
2022/06/24 13:30:18;;;;;;;7.10;0.98;;;;;;;;;;5025828;28;20045;-63
2022/06/24 13:32:44;;;;;;;2.45;0.90;;;;;;;;;;5029194;28;20539;-61
2022/06/24 13:35:11;;;;;;;3.28;0.98;;;;;;;;;;5020342;28;20029;-60
2022/06/24 13:37:37;;;;;;;1.85;0.70;;;;;;;;;;5027977;28;20037;-60
2022/06/24 13:40:04;;;;;;;3.63;0.82;;;;;;;;;;5026577;28;20034;-60
2022/06/24 13:42:32;;;;;;;3.33;1.20;;;;;;;;;;5030000;28;20557;-57
2022/06/24 13:44:58;;;;;;;1.33;0.80;;;;;;;;;;5019560;28;20037;-60
2022/06/24 13:47:24;;;;;;;1.25;0.88;;;;;;;;;;5026427;28;20053;-60
2022/06/24 13:49:50;;;;;;;1.67;1.00;;;;;;;;;;5026857;28;20523;-58
2022/06/24 13:52:16;;;;;;;2.53;1.10;;;;;;;;;;5027028;28;20108;-59
2022/06/24 13:54:42;;;;;;;3.85;0.98;;;;;;;;;;5027048;28;20069;-60
2022/06/24 13:57:09;;;;;;;2.92;0.85;;;;;;;;;;5028531;28;20088;-60
2022/06/24 13:59:35;;;;;;;1.77;0.73;;;;;;;;;;5030299;28;20022;-60
2022/06/24 14:02:01;;;;;;;5.72;1.00;;;;;;;;;;5028585;28;20051;-57
2022/06/24 14:04:27;;;;;;;1.92;0.90;;;;;;;;;;5031936;28;20037;-59
2022/06/24 14:06:53;;;;;;;4.28;0.70;;;;;;;;;;5016000;28;20496;-60
2022/06/24 14:09:19;;;;;;;7.88;0.70;;;;;;;;;;5029470;28;20077;-60
2022/06/24 14:11:45;;;;;;;2.05;0.77;;;;;;;;;;5031595;28;20033;-61
2022/06/24 14:14:12;;;;;;;1.65;0.60;;;;;;;;;;5033589;28;20791;-58
2022/06/24 14:16:38;;;;;;;3.75;0.80;;;;;;;;;;5033712;28;20105;-60
2022/06/24 14:19:06;;;;;;;4.43;1.00;;;;;;;;;;5032971;28;20056;-60
2022/06/24 14:21:34;;;;;;;2.60;0.70;;;;;;;;;;5033309;28;20039;-60
2022/06/24 14:26:45;;;;;;;3.75;0.90;;;;;;;;;;5030236;28;20092;-60
2022/06/24 14:29:11;;;;;;;2.75;0.85;;;;;;;;;;5025360;28;20465;-60
2022/06/24 14:31:37;;;;;;;2.17;0.77;;;;;;;;;;5032560;28;20018;-60
2022/06/24 14:34:03;;;;;;;1.50;0.60;;;;;;;;;;5030917;28;20017;-60
2022/06/24 14:36:29;;;;;;;2.53;0.70;;;;;;;;;;5027143;28;20382;-60
2022/06/24 14:41:39;;;;;;;3.30;0.80;;;;;;;;;;5032642;28;20048;-60
2022/06/24 14:44:05;;;;;;;3.83;0.80;;;;;;;;;;5029604;28;20034;-61
2022/06/24 14:46:31;;;;;;;1.85;0.90;;;;;;;;;;5029378;28;20124;-59
2022/06/24 14:48:57;;;;;;;1.58;0.73;;;;;;;;;;5030305;28;20485;-59
2022/06/24 14:51:23;;;;;;;2.60;1.13;;;;;;;;;;5030224;28;20021;-60
2022/06/24 14:53:49;;;;;;;3.42;1.00;;;;;;;;;;5029391;28;20092;-60
2022/06/24 14:56:15;;;;;;;1.20;0.90;;;;;;;;;;5028723;28;20033;-59
2022/06/24 14:58:41;;;;;;;1.88;0.70;;;;;;;;;;5027669;28;20116;-59
2022/06/24 15:01:07;;;;;;;1.92;0.80;;;;;;;;;;5028548;28;20037;-60
2022/06/24 15:03:33;;;;;;;1.80;0.80;;;;;;;;;;5021568;28;20164;-60